Time;durP1;ratioP1;P1;durP2;ratioP2;P2;SDS_P1;SDS_P2;PMS_P1;PMS_P2;Temp;Humidity;BMP_temperature;BMP_pressure;BME280_temperature;BME280_humidity;BME280_pressure;Samples;Min_cycle;Max_cycle;Signal;HPM_P1;HPM_P2
2020/12/14 00:00:37;;;;;;;;;;;;;;;3.04;100.00;96181.06;5003349;28;19926;-57
2020/12/14 00:03:03;;;;;;;;;;;;;;;3.11;100.00;96185.84;5027750;28;19925;-53
2020/12/14 00:05:30;;;;;;;;;;;;;;;3.15;100.00;96182.09;4991732;28;19944;-57
2020/12/14 00:07:57;;;;;;;;;;;;;;;3.16;100.00;96178.53;5037944;28;20017;-58
2020/12/14 00:10:24;;;;;;;;;;;;;;;3.26;100.00;96171.75;5025277;28;19928;-56
2020/12/14 00:12:51;;;;;;;;;;;;;;;3.28;100.00;96182.91;4987561;28;20288;-57
2020/12/14 00:15:18;;;;;;;;;;;;;;;3.43;100.00;96183.59;5037468;28;19947;-56
2020/12/14 00:17:45;;;;;;;;;;;;;;;3.49;100.00;96170.16;4991498;28;20024;-57
2020/12/14 00:20:12;;;;;;;;;;;;;;;3.54;100.00;96168.03;5029084;28;19929;-58
2020/12/14 00:22:39;;;;;;;;;;;;;;;3.57;100.00;96171.25;5002060;28;20283;-57
2020/12/14 00:25:05;;;;;;;;;;;;;;;3.66;100.00;96171.56;5033369;28;19929;-58
2020/12/14 00:27:32;;;;;;;;;;;;;;;3.50;100.00;96166.59;4997182;28;19936;-58
2020/12/14 00:30:00;;;;;;;;;;;;;;;3.51;100.00;96174.31;5023594;28;19931;-58
2020/12/14 00:32:27;;;;;;;;;;;;;;;3.54;100.00;96168.88;4998302;28;19990;-58
2020/12/14 00:34:53;;;;;;;;;;;;;;;3.47;100.00;96174.63;5027177;28;19955;-57
2020/12/14 00:37:20;;;;;;;;;;;;;;;3.42;100.00;96180.16;4992792;28;19971;-58
2020/12/14 00:39:47;;;;;;;;;;;;;;;3.45;100.00;96176.53;5025811;28;20020;-57
2020/12/14 00:42:14;;;;;;;;;;;;;;;3.48;100.00;96169.31;4992951;28;19925;-60
2020/12/14 00:44:40;;;;;;;;;;;;;;;3.41;100.00;96177.69;5026340;28;20012;-57
2020/12/14 00:47:08;;;;;;;;;;;;;;;3.44;100.00;96173.09;4996289;28;19933;-56
2020/12/14 00:49:35;;;;;;;;;;;;;;;3.45;100.00;96171.31;5023089;28;19971;-61
2020/12/14 00:52:04;;;;;;;;;;;;;;;3.46;100.00;96178.19;5024431;28;19975;-58
2020/12/14 00:54:31;;;;;;;;;;;;;;;3.44;100.00;96172.22;4982592;28;20464;-57
2020/12/14 00:56:57;;;;;;;;;;;;;;;3.40;100.00;96169.00;5021850;28;19956;-58
2020/12/14 00:59:24;;;;;;;;;;;;;;;3.37;100.00;96171.00;4995603;28;20437;-59
2020/12/14 01:01:51;;;;;;;;;;;;;;;3.40;100.00;96170.78;5022447;28;19975;-57
2020/12/14 01:04:19;;;;;;;;;;;;;;;3.45;100.00;96172.13;4988468;28;20002;-55
2020/12/14 01:06:46;;;;;;;;;;;;;;;3.47;100.00;96191.09;5021964;28;20027;-58
2020/12/14 01:09:12;;;;;;;;;;;;;;;3.58;100.00;96185.16;4980935;28;19929;-57
2020/12/14 01:11:39;;;;;;;;;;;;;;;3.66;100.00;96189.81;5000892;28;19941;-56
2020/12/14 01:14:06;;;;;;;;;;;;;;;3.73;100.00;96193.66;4975840;28;20307;-57
2020/12/14 01:16:33;;;;;;;;;;;;;;;3.74;100.00;96195.31;5001992;28;19933;-58
2020/12/14 01:19:00;;;;;;;;;;;;;;;3.71;100.00;96203.34;4978826;28;19925;-57
2020/12/14 01:21:27;;;;;;;;;;;;;;;3.68;100.00;96207.03;5004462;28;20402;-57
2020/12/14 01:23:54;;;;;;;;;;;;;;;3.68;100.00;96208.78;4974254;28;20462;-58
2020/12/14 01:26:21;;;;;;;;;;;;;;;3.71;100.00;96213.78;5007063;28;20060;-59
2020/12/14 01:28:47;;;;;;;;;;;;;;;3.69;100.00;96218.28;4990123;28;19996;-60
2020/12/14 01:31:14;;;;;;;;;;;;;;;3.81;100.00;96223.44;5016746;28;20426;-53
2020/12/14 01:33:41;;;;;;;;;;;;;;;3.83;100.00;96225.94;5016467;28;19932;-59
2020/12/14 01:36:08;;;;;;;;;;;;;;;3.85;100.00;96228.44;5006521;28;19975;-59
2020/12/14 01:38:35;;;;;;;;;;;;;;;3.90;100.00;96224.56;5019211;28;19967;-59
2020/12/14 01:41:02;;;;;;;;;;;;;;;3.93;100.00;96218.31;5001859;28;19929;-59
2020/12/14 01:43:29;;;;;;;;;;;;;;;3.90;100.00;96215.91;5032500;28;20316;-60
2020/12/14 01:45:56;;;;;;;;;;;;;;;3.92;100.00;96211.41;4996817;28;20410;-57
2020/12/14 01:48:23;;;;;;;;;;;;;;;3.86;100.00;96202.25;5032381;28;20312;-58
2020/12/14 01:50:50;;;;;;;;;;;;;;;3.80;100.00;96194.88;5000493;28;19941;-60
2020/12/14 01:53:17;;;;;;;;;;;;;;;3.75;100.00;96181.31;5044181;28;19957;-56
2020/12/14 01:55:45;;;;;;;;;;;;;;;3.79;100.00;96182.78;5000890;28;20020;-59
2020/12/14 01:58:12;;;;;;;;;;;;;;;3.83;100.00;96171.19;5026306;28;20417;-59
2020/12/14 02:00:38;;;;;;;;;;;;;;;3.87;100.00;96162.19;5001595;28;19925;-59
2020/12/14 02:03:05;;;;;;;;;;;;;;;4.00;100.00;96157.75;5026256;28;19930;-58
2020/12/14 02:05:32;;;;;;;;;;;;;;;4.05;100.00;96154.78;4995776;28;20002;-57
2020/12/14 02:07:59;;;;;;;;;;;;;;;4.12;100.00;96147.34;5031796;28;20371;-59
2020/12/14 02:10:26;;;;;;;;;;;;;;;4.06;100.00;96143.44;4999391;28;19933;-57
2020/12/14 02:12:53;;;;;;;;;;;;;;;4.05;100.00;96150.41;5031323;28;19933;-59
2020/12/14 02:15:20;;;;;;;;;;;;;;;4.02;100.00;96148.03;5016351;28;19935;-60
2020/12/14 02:17:47;;;;;;;;;;;;;;;4.03;100.00;96151.47;5001537;28;20414;-59
2020/12/14 02:20:15;;;;;;;;;;;;;;;4.02;100.00;96144.59;5032381;28;20350;-60
2020/12/14 02:22:42;;;;;;;;;;;;;;;4.05;100.00;96154.78;4985044;28;19933;-57
2020/12/14 02:25:09;;;;;;;;;;;;;;;4.01;100.00;96155.97;5035865;28;19933;-59
2020/12/14 02:27:37;;;;;;;;;;;;;;;4.02;100.00;96166.28;4997137;28;19933;-56
2020/12/14 02:30:04;;;;;;;;;;;;;;;4.11;100.00;96170.00;5025906;28;19929;-60
2020/12/14 02:32:31;;;;;;;;;;;;;;;4.10;100.00;96162.31;5004748;28;19964;-58
2020/12/14 02:34:57;;;;;;;;;;;;;;;4.09;100.00;96176.28;5032041;28;19979;-59
2020/12/14 02:37:25;;;;;;;;;;;;;;;4.14;100.00;96174.19;4991377;28;19972;-57
2020/12/14 02:39:52;;;;;;;;;;;;;;;4.12;100.00;96170.84;5030648;28;20011;-58
2020/12/14 02:42:20;;;;;;;;;;;;;;;4.03;100.00;96167.97;5003264;28;19932;-59
2020/12/14 02:44:48;;;;;;;;;;;;;;;4.05;100.00;96168.66;5026979;28;19929;-60
2020/12/14 02:47:15;;;;;;;;;;;;;;;4.00;100.00;96162.97;4983075;28;19925;-57
2020/12/14 02:49:43;;;;;;;;;;;;;;;3.90;100.00;96156.75;5034230;28;19929;-59
2020/12/14 02:52:10;;;;;;;;;;;;;;;3.86;100.00;96157.91;4989826;28;19929;-60
2020/12/14 02:54:37;;;;;;;;;;;;;;;3.84;100.00;96149.38;5024941;28;19929;-60
2020/12/14 02:57:04;;;;;;;;;;;;;;;3.85;100.00;96156.25;5000867;28;19967;-58
2020/12/14 02:59:31;;;;;;;;;;;;;;;3.86;100.00;96172.75;5025271;28;19956;-60
2020/12/14 03:01:58;;;;;;;;;;;;;;;3.92;100.00;96188.78;5027651;28;20429;-60
2020/12/14 03:04:25;;;;;;;;;;;;;;;3.95;100.00;96180.72;4998925;28;19928;-60
2020/12/14 03:06:53;;;;;;;;;;;;;;;3.87;100.00;96174.41;5031640;28;19933;-59
2020/12/14 03:09:22;;;;;;;;;;;;;;;3.86;100.00;96173.56;4990538;28;20408;-57
2020/12/14 03:11:49;;;;;;;;;;;;;;;3.89;100.00;96167.28;4995291;28;20390;-60
2020/12/14 03:14:16;;;;;;;;;;;;;;;3.88;100.00;96168.22;4996273;28;19925;-60
2020/12/14 03:16:44;;;;;;;;;;;;;;;3.88;100.00;96176.88;5010994;28;20319;-60
2020/12/14 03:19:11;;;;;;;;;;;;;;;3.86;100.00;96176.19;4992379;28;20346;-60
2020/12/14 03:21:38;;;;;;;;;;;;;;;3.79;100.00;96181.00;5033387;28;19932;-60
2020/12/14 03:24:05;;;;;;;;;;;;;;;3.71;100.00;96179.88;4999371;28;19971;-60
2020/12/14 03:26:31;;;;;;;;;;;;;;;3.70;100.00;96184.25;5028536;28;19932;-60
2020/12/14 03:28:58;;;;;;;;;;;;;;;3.71;100.00;96185.09;4996817;28;19925;-59
2020/12/14 03:31:25;;;;;;;;;;;;;;;3.77;100.00;96200.31;5024312;28;19925;-59
2020/12/14 03:33:53;;;;;;;;;;;;;;;3.67;100.00;96187.06;4985745;28;19976;-60
2020/12/14 03:36:20;;;;;;;;;;;;;;;3.68;100.00;96177.47;5027244;28;19992;-60
2020/12/14 03:38:48;;;;;;;;;;;;;;;3.67;100.00;96171.44;4994716;28;20655;-57
2020/12/14 03:41:15;;;;;;;;;;;;;;;3.69;100.00;96171.34;5009230;28;20288;-59
2020/12/14 03:43:41;;;;;;;;;;;;;;;3.65;100.00;96167.25;5023315;28;19934;-59
2020/12/14 03:46:13;;;;;;;;;;;;;;;3.60;100.00;96170.22;4992737;28;20016;-58
2020/12/14 03:48:40;;;;;;;;;;;;;;;3.60;100.00;96170.22;5022626;28;19932;-56
2020/12/14 03:51:08;;;;;;;;;;;;;;;3.59;100.00;96170.34;4985896;28;20392;-59
2020/12/14 03:53:35;;;;;;;;;;;;;;;3.59;100.00;96158.13;5032690;28;19978;-59
2020/12/14 03:56:02;;;;;;;;;;;;;;;3.43;100.00;96150.53;4992937;28;19956;-59
2020/12/14 03:58:29;;;;;;;;;;;;;;;3.35;100.00;96149.44;5030406;28;19998;-59
2020/12/14 04:00:56;;;;;;;;;;;;;;;3.26;100.00;96162.16;4995050;28;20399;-58
2020/12/14 04:03:24;;;;;;;;;;;;;;;3.17;100.00;96175.00;5022577;28;19925;-60
2020/12/14 04:05:51;;;;;;;;;;;;;;;3.18;100.00;96181.88;4994669;28;20303;-58
2020/12/14 04:08:19;;;;;;;;;;;;;;;3.23;100.00;96184.97;5024382;28;19932;-59
2020/12/14 04:10:46;;;;;;;;;;;;;;;3.27;100.00;96186.47;4976643;28;20334;-57
2020/12/14 04:13:12;;;;;;;;;;;;;;;3.25;100.00;96190.94;5026785;28;20408;-59
2020/12/14 04:15:39;;;;;;;;;;;;;;;3.22;100.00;96184.16;4999150;28;20020;-58
2020/12/14 04:18:05;;;;;;;;;;;;;;;3.00;100.00;96179.59;5026208;28;19971;-60
2020/12/14 04:20:32;;;;;;;;;;;;;;;2.87;100.00;96191.78;4992454;28;22182;-60
2020/12/14 04:22:59;;;;;;;;;;;;;;;2.74;100.00;96189.16;5038782;28;19972;-60
2020/12/14 04:25:27;;;;;;;;;;;;;;;2.55;100.00;96189.59;5002834;28;20012;-58
2020/12/14 04:27:58;;;;;;;;;;;;;;;2.40;100.00;96190.59;5023294;28;19933;-58
2020/12/14 04:30:25;;;;;;;;;;;;;;;2.33;100.00;96190.16;5030232;28;19924;-58
2020/12/14 04:32:51;;;;;;;;;;;;;;;2.17;100.00;96191.25;4985681;28;19968;-60
2020/12/14 04:35:18;;;;;;;;;;;;;;;2.11;100.00;96184.69;5023391;28;19958;-56
2020/12/14 04:37:45;;;;;;;;;;;;;;;2.09;100.00;96184.78;4992763;28;19948;-59
2020/12/14 04:40:11;;;;;;;;;;;;;;;2.07;100.00;96183.25;5025530;28;19928;-60
2020/12/14 04:42:39;;;;;;;;;;;;;;;2.13;100.00;96186.28;4996413;28;19956;-58
2020/12/14 04:45:06;;;;;;;;;;;;;;;2.07;100.00;96181.47;5024628;28;19957;-56
2020/12/14 04:47:32;;;;;;;;;;;;;;;2.14;100.00;96174.94;4988659;28;20020;-57
2020/12/14 04:49:59;;;;;;;;;;;;;;;2.09;100.00;96189.97;5026729;28;19966;-60
2020/12/14 04:52:26;;;;;;;;;;;;;;;1.86;100.00;96188.06;4990472;28;19961;-59
2020/12/14 04:54:52;;;;;;;;;;;;;;;1.77;100.00;96186.88;5024015;28;20628;-59
2020/12/14 04:57:20;;;;;;;;;;;;;;;1.60;100.00;96189.69;4996522;28;19925;-55
2020/12/14 04:59:47;;;;;;;;;;;;;;;1.43;100.00;96196.78;5021072;28;19976;-56
2020/12/14 05:02:14;;;;;;;;;;;;;;;1.34;100.00;96197.34;4986537;28;19933;-59
2020/12/14 05:04:41;;;;;;;;;;;;;;;1.43;100.00;96188.97;5024307;28;19925;-58
2020/12/14 05:07:08;;;;;;;;;;;;;;;1.45;100.00;96165.50;4985592;28;19929;-57
2020/12/14 05:09:35;;;;;;;;;;;;;;;1.38;100.00;96167.66;5020975;28;19929;-57
2020/12/14 05:12:01;;;;;;;;;;;;;;;1.53;100.00;96165.03;5031232;28;19935;-58
2020/12/14 05:14:30;;;;;;;;;;;;;;;1.54;100.00;96166.69;4991025;28;20387;-57
2020/12/14 05:16:58;;;;;;;;;;;;;;;1.45;100.00;96172.47;5010168;28;20028;-60
2020/12/14 05:19:25;;;;;;;;;;;;;;;1.40;100.00;96173.56;4995244;28;19928;-59
2020/12/14 05:21:53;;;;;;;;;;;;;;;1.28;100.00;96178.72;5007649;28;20439;-57
2020/12/14 05:24:23;;;;;;;;;;;;;;;1.11;100.00;96188.38;4992821;28;19987;-59
2020/12/14 05:26:50;;;;;;;;;;;;;;;1.06;100.00;96193.00;5023849;28;20396;-56
2020/12/14 05:29:23;;;;;;;;;;;;;;;1.40;100.00;96199.56;5000538;28;19932;-58
2020/12/14 05:31:59;;;;;;;;;;;;;;;1.39;100.00;96191.88;5024321;28;19925;-59
2020/12/14 05:34:29;;;;;;;;;;;;;;;1.41;100.00;96192.59;4970146;28;19965;-59
2020/12/14 05:36:56;;;;;;;;;;;;;;;1.47;100.00;96187.03;5022918;28;20008;-57
2020/12/14 05:39:27;;;;;;;;;;;;;;;1.43;100.00;96190.75;4969476;28;19930;-57
2020/12/14 05:41:54;;;;;;;;;;;;;;;1.40;100.00;96186.56;5018274;28;20065;-56
2020/12/14 05:44:27;;;;;;;;;;;;;;;1.37;100.00;96194.53;4982444;28;19925;-58
2020/12/14 05:46:54;;;;;;;;;;;;;;;1.31;100.00;96188.91;5008935;28;19952;-57
2020/12/14 05:49:22;;;;;;;;;;;;;;;1.25;100.00;96197.91;4969937;28;19968;-58
2020/12/14 05:51:49;;;;;;;;;;;;;;;1.20;100.00;96192.16;5001225;28;19926;-56
2020/12/14 05:54:17;;;;;;;;;;;;;;;1.10;100.00;96186.72;4985380;28;19952;-59
2020/12/14 05:56:44;;;;;;;;;;;;;;;1.10;100.00;96186.72;5004627;28;19932;-58
2020/12/14 05:59:10;;;;;;;;;;;;;;;1.10;100.00;96189.31;4984083;28;19965;-58
2020/12/14 06:01:37;;;;;;;;;;;;;;;1.03;100.00;96187.97;5005881;28;20355;-59
2020/12/14 06:04:04;;;;;;;;;;;;;;;1.01;100.00;96189.03;5001037;28;19960;-59
2020/12/14 06:06:32;;;;;;;;;;;;;;;0.83;100.00;96191.81;4979062;28;20348;-57
2020/12/14 06:09:02;;;;;;;;;;;;;;;0.78;100.00;96205.97;5006654;28;20388;-59
2020/12/14 06:11:29;;;;;;;;;;;;;;;0.78;100.00;96213.75;4970343;28;20028;-55
2020/12/14 06:13:56;;;;;;;;;;;;;;;0.79;100.00;96218.88;5017979;28;20470;-58
2020/12/14 06:16:24;;;;;;;;;;;;;;;0.66;100.00;96212.72;4986009;28;20357;-57
2020/12/14 06:18:51;;;;;;;;;;;;;;;0.71;100.00;96208.91;5017243;28;19925;-56
2020/12/14 06:21:19;;;;;;;;;;;;;;;0.60;100.00;96203.53;4996460;28;19979;-56
2020/12/14 06:23:47;;;;;;;;;;;;;;;0.58;100.00;96205.38;5025505;28;19925;-59
2020/12/14 06:26:14;;;;;;;;;;;;;;;0.51;100.00;96200.63;4979333;28;20396;-59
2020/12/14 06:28:41;;;;;;;;;;;;;;;0.61;100.00;96202.59;5024227;28;19925;-59
2020/12/14 06:31:11;;;;;;;;;;;;;;;0.58;100.00;96201.94;4995621;28;19931;-60
2020/12/14 06:33:38;;;;;;;;;;;;;;;0.49;100.00;96205.09;5025449;28;20012;-56
2020/12/14 06:36:14;;;;;;;;;;;;;;;0.27;100.00;96206.31;4991409;28;19929;-58
2020/12/14 06:38:42;;;;;;;;;;;;;;;0.19;100.00;96204.16;5022136;28;20375;-58
2020/12/14 06:41:13;;;;;;;;;;;;;;;0.53;100.00;96207.41;5000663;28;19924;-57
2020/12/14 06:43:40;;;;;;;;;;;;;;;0.64;100.00;96206.78;5028365;28;19925;-55
2020/12/14 06:46:07;;;;;;;;;;;;;;;0.62;100.00;96213.81;4975467;28;24356;-57
2020/12/14 06:48:35;;;;;;;;;;;;;;;0.59;100.00;96209.66;5035325;28;19991;-59
2020/12/14 06:51:01;;;;;;;;;;;;;;;0.39;100.00;96207.38;5019795;28;19959;-57
2020/12/14 06:53:42;;;;;;;;;;;;;;;0.60;100.00;96216.50;5010362;28;19932;-57
2020/12/14 06:56:09;;;;;;;;;;;;;;;0.68;100.00;96203.91;5041032;28;20002;-58
2020/12/14 06:58:39;;;;;;;;;;;;;;;0.66;100.00;96204.94;4968915;28;20322;-55
2020/12/14 07:01:06;;;;;;;;;;;;;;;0.71;100.00;96206.31;5007845;28;19925;-57
2020/12/14 07:03:37;;;;;;;;;;;;;;;0.71;100.00;96211.50;4985829;28;19946;-57
2020/12/14 07:06:04;;;;;;;;;;;;;;;0.76;100.00;96207.81;5026341;28;19925;-55
2020/12/14 07:08:37;;;;;;;;;;;;;;;0.74;100.00;96207.91;4999920;28;19952;-59
2020/12/14 07:11:10;;;;;;;;;;;;;;;0.68;100.00;96213.44;5028955;28;19960;-58
2020/12/14 07:13:39;;;;;;;;;;;;;;;0.71;100.00;96206.31;4997681;28;19925;-59
2020/12/14 07:16:06;;;;;;;;;;;;;;;0.76;100.00;96210.41;5029827;28;19930;-59
2020/12/14 07:18:33;;;;;;;;;;;;;;;0.77;100.00;96207.72;4989547;28;19929;-54
2020/12/14 07:21:07;;;;;;;;;;;;;;;0.65;100.00;96219.69;5033219;28;19968;-58
2020/12/14 07:23:34;;;;;;;;;;;;;;;0.71;100.00;96216.69;4991729;28;19925;-58
2020/12/14 07:26:01;;;;;;;;;;;;;;;0.80;100.00;96227.50;5032176;28;20009;-59
2020/12/14 07:28:35;;;;;;;;;;;;;;;0.81;100.00;96227.38;4999035;28;20553;-58
2020/12/14 07:31:09;;;;;;;;;;;;;;;0.78;100.00;96227.56;5031266;28;19971;-58
2020/12/14 07:33:37;;;;;;;;;;;;;;;0.91;100.00;96236.28;4991969;28;20024;-58
2020/12/14 07:36:04;;;;;;;;;;;;;;;0.94;100.00;96240.47;5026237;28;19925;-55
2020/12/14 07:38:31;;;;;;;;;;;;;;;1.00;100.00;96229.72;4992266;28;19964;-59
2020/12/14 07:41:07;;;;;;;;;;;;;;;1.03;100.00;96232.13;5027057;28;19957;-58
2020/12/14 07:43:43;;;;;;;;;;;;;;;1.09;100.00;96228.34;4998370;28;19971;-58
2020/12/14 07:46:21;;;;;;;;;;;;;;;1.11;100.00;96227.31;5034338;28;19926;-58
2020/12/14 07:48:51;;;;;;;;;;;;;;;1.16;100.00;96227.03;4993315;28;20011;-58
2020/12/14 07:51:18;;;;;;;;;;;;;;;1.22;100.00;96236.22;5018576;28;19932;-52
2020/12/14 07:53:46;;;;;;;;;;;;;;;1.27;100.00;96239.38;4995804;28;20664;-59
2020/12/14 07:56:13;;;;;;;;;;;;;;;1.31;100.00;96236.50;5022097;28;20407;-55
2020/12/14 07:58:46;;;;;;;;;;;;;;;1.35;100.00;96232.78;5013784;28;19971;-59
2020/12/14 08:01:14;;;;;;;;;;;;;;;1.44;100.00;96241.75;5024514;28;20445;-57
2020/12/14 08:03:41;;;;;;;;;;;;;;;1.48;100.00;96234.63;5024175;28;20295;-56
2020/12/14 08:06:12;;;;;;;;;;;;;;;1.44;100.00;96239.16;5007645;28;20329;-58
2020/12/14 08:08:38;;;;;;;;;;;;;;;1.34;100.00;96238.91;5029010;28;20356;-57
2020/12/14 08:11:05;;;;;;;;;;;;;;;1.26;100.00;96242.91;4997777;28;19929;-59
2020/12/14 08:13:32;;;;;;;;;;;;;;;1.23;100.00;96235.28;5022061;28;19925;-59
2020/12/14 08:16:01;;;;;;;;;;;;;;;1.03;100.00;96239.06;4996789;28;20002;-56
2020/12/14 08:18:27;;;;;;;;;;;;;;;1.16;100.00;96240.84;5029145;28;20289;-57
2020/12/14 08:20:56;;;;;;;;;;;;;;;1.08;100.00;96243.09;4982712;28;19932;-59
2020/12/14 08:23:36;;;;;;;;;;;;;;;1.10;100.00;96245.56;5032727;28;20012;-59
2020/12/14 08:26:03;;;;;;;;;;;;;;;1.15;100.00;96243.56;5030176;28;19929;-59
2020/12/14 08:28:30;;;;;;;;;;;;;;;1.23;100.00;96248.28;4899256;28;19968;-60
2020/12/14 08:30:57;;;;;;;;;;;;;;;1.23;100.00;96238.72;5018522;28;19925;-56
2020/12/14 08:33:25;;;;;;;;;;;;;;;1.45;100.00;96245.22;4964140;28;20434;-59
2020/12/14 08:35:52;;;;;;;;;;;;;;;1.52;100.00;96244.75;5021428;28;20410;-59
2020/12/14 08:38:20;;;;;;;;;;;;;;;1.75;100.00;96242.47;4987047;28;19955;-59
2020/12/14 08:40:51;;;;;;;;;;;;;;;2.03;100.00;96245.03;5036260;28;19926;-57
2020/12/14 08:43:18;;;;;;;;;;;;;;;1.74;100.00;96243.41;4980917;28;19931;-58
2020/12/14 08:45:58;;;;;;;;;;;;;;;1.63;100.00;96244.06;5016546;28;20012;-58
2020/12/14 08:48:25;;;;;;;;;;;;;;;1.90;100.00;96241.53;4986311;28;20000;-57
2020/12/14 08:51:03;;;;;;;;;;;;;;;1.63;100.00;96241.47;5002994;28;20201;-58
2020/12/14 08:53:31;;;;;;;;;;;;;;;1.86;100.00;96243.47;4969891;28;22638;-58
2020/12/14 08:56:01;;;;;;;;;;;;;;;2.12;100.00;96247.00;5023555;28;19929;-57
2020/12/14 08:58:27;;;;;;;;;;;;;;;1.97;100.00;96248.00;4976405;28;19972;-58
2020/12/14 09:00:54;;;;;;;;;;;;;;;1.84;100.00;96247.94;5007235;28;19926;-59
2020/12/14 09:03:21;;;;;;;;;;;;;;;2.03;100.00;96252.81;4993014;28;19996;-59
2020/12/14 09:05:48;;;;;;;;;;;;;;;2.26;100.00;96256.53;4975907;28;19965;-59
2020/12/14 09:08:16;;;;;;;;;;;;;;;2.08;100.00;96252.50;5026398;28;19929;-57
2020/12/14 09:10:55;;;;;;;;;;;;;;;2.07;100.00;96261.25;4976246;28;20453;-55
2020/12/14 09:13:23;;;;;;;;;;;;;;;1.85;100.00;96264.34;5040107;28;19976;-58
2020/12/14 09:15:53;;;;;;;;;;;;;;;2.04;100.00;96267.47;4987114;28;19929;-58
2020/12/14 09:18:20;;;;;;;;;;;;;;;2.11;100.00;96268.75;5026808;28;19960;-58
2020/12/14 09:20:48;;;;;;;;;;;;;;;2.37;100.00;96266.25;5002372;28;19925;-59
2020/12/14 09:23:18;;;;;;;;;;;;;;;2.57;100.00;96271.00;5016560;28;20366;-59
2020/12/14 09:25:45;;;;;;;;;;;;;;;2.68;100.00;96275.50;4996131;28;19952;-59
2020/12/14 09:28:13;;;;;;;;;;;;;;;2.86;100.00;96276.06;5025219;28;20028;-57
2020/12/14 09:30:40;;;;;;;;;;;;;;;2.74;100.00;96274.25;4983912;28;19933;-59
2020/12/14 09:33:07;;;;;;;;;;;;;;;2.71;100.00;96277.88;5026059;28;19952;-59
2020/12/14 09:35:36;;;;;;;;;;;;;;;2.88;100.00;96274.19;4973905;28;19942;-58
2020/12/14 09:38:03;;;;;;;;;;;;;;;2.69;100.00;96278.94;5028713;28;19983;-57
2020/12/14 09:40:29;;;;;;;;;;;;;;;2.98;100.00;96283.03;4978723;28;19926;-58
2020/12/14 09:42:56;;;;;;;;;;;;;;;2.75;100.00;96273.31;5020145;28;20011;-58
2020/12/14 09:45:24;;;;;;;;;;;;;;;2.78;100.00;96271.34;4972805;28;20409;-59
2020/12/14 09:47:51;;;;;;;;;;;;;;;2.79;100.00;96269.59;5009303;28;19926;-59
2020/12/14 09:50:17;;;;;;;;;;;;;;;3.41;100.00;96261.09;5009452;28;19971;-59
2020/12/14 09:52:44;;;;;;;;;;;;;;;3.01;100.00;96263.78;4954872;28;19932;-57
2020/12/14 09:55:12;;;;;;;;;;;;;;;2.99;100.00;96266.47;5010261;28;20352;-59
2020/12/14 09:57:39;;;;;;;;;;;;;;;3.05;100.00;96268.66;4971102;28;20303;-59
2020/12/14 10:00:06;;;;;;;;;;;;;;;2.63;100.00;96266.31;5014987;28;20332;-56
2020/12/14 10:02:34;;;;;;;;;;;;;;;2.48;100.00;96268.16;4979916;28;19937;-59
2020/12/14 10:05:09;;;;;;;;;;;;;;;2.66;100.00;96264.34;5024328;28;19956;-59
2020/12/14 10:07:41;;;;;;;;;;;;;;;2.84;100.00;96257.09;4982499;28;19925;-58
2020/12/14 10:10:08;;;;;;;;;;;;;;;3.24;100.00;96249.22;5010209;28;19940;-58
2020/12/14 10:12:37;;;;;;;;;;;;;;;3.67;100.00;96241.00;4983518;28;20346;-57
2020/12/14 10:15:05;;;;;;;;;;;;;;;3.44;100.00;96240.00;5033774;28;20372;-56
2020/12/14 10:17:32;;;;;;;;;;;;;;;3.20;100.00;96240.78;4995094;28;19932;-57
2020/12/14 10:20:00;;;;;;;;;;;;;;;3.46;100.00;96254.59;5029683;28;19925;-59
2020/12/14 10:22:27;;;;;;;;;;;;;;;3.39;100.00;96255.13;4991025;28;20024;-57
2020/12/14 10:24:54;;;;;;;;;;;;;;;3.62;100.00;96263.97;5040099;28;20032;-58
2020/12/14 10:27:21;;;;;;;;;;;;;;;3.68;100.00;96259.16;4988002;28;19929;-58
2020/12/14 10:29:48;;;;;;;;;;;;;;;3.96;100.00;96255.44;5029941;28;20403;-59
2020/12/14 10:32:15;;;;;;;;;;;;;;;3.70;100.00;96248.63;4981207;28;19940;-59
2020/12/14 10:34:41;;;;;;;;;;;;;;;3.62;100.00;96254.38;5024688;28;20844;-61
2020/12/14 10:37:09;;;;;;;;;;;;;;;3.28;100.00;96258.47;5021299;28;19939;-58
2020/12/14 10:39:36;;;;;;;;;;;;;;;3.58;100.00;96260.75;5004714;28;19992;-59
2020/12/14 10:42:03;;;;;;;;;;;;;;;3.44;100.00;96259.09;5036535;28;19929;-61
2020/12/14 10:44:30;;;;;;;;;;;;;;;3.65;100.00;96255.91;4996137;28;20401;-56
2020/12/14 10:46:57;;;;;;;;;;;;;;;3.81;100.00;96252.13;5025654;28;19940;-59
2020/12/14 10:49:24;;;;;;;;;;;;;;;4.08;100.00;96258.13;5006094;28;19940;-58
2020/12/14 10:51:50;;;;;;;;;;;;;;;4.06;100.00;96253.03;5024866;28;20021;-57
2020/12/14 10:54:18;;;;;;;;;;;;;;;3.83;100.00;96256.41;4976847;28;19936;-58
2020/12/14 10:56:45;;;;;;;;;;;;;;;3.95;100.00;96250.31;5038566;28;19925;-58
2020/12/14 10:59:12;;;;;;;;;;;;;;;4.15;100.00;96247.13;4990722;28;19932;-56
2020/12/14 11:01:39;;;;;;;;;;;;;;;3.90;100.00;96247.22;5028553;28;19925;-56
2020/12/14 11:04:06;;;;;;;;;;;;;;;4.08;100.00;96240.69;4991760;28;19933;-58
2020/12/14 11:06:33;;;;;;;;;;;;;;;3.71;100.00;96242.44;5028553;28;20016;-59
2020/12/14 11:09:00;;;;;;;;;;;;;;;3.78;100.00;96248.91;4993376;28;20094;-59
2020/12/14 11:11:32;;;;;;;;;;;;;;;3.74;100.00;96237.84;5033571;28;19984;-59
2020/12/14 11:13:59;;;;;;;;;;;;;;;3.71;100.00;96239.84;4975068;28;20311;-56
2020/12/14 11:16:27;;;;;;;;;;;;;;;3.60;100.00;96229.34;5005851;28;19949;-58
2020/12/14 11:18:55;;;;;;;;;;;;;;;3.49;100.00;96232.72;4987783;28;19969;-59
2020/12/14 11:21:24;;;;;;;;;;;;;;;3.42;100.00;96229.69;5027681;28;19933;-57
2020/12/14 11:23:51;;;;;;;;;;;;;;;3.62;100.00;96245.72;5006288;28;20012;-59
2020/12/14 11:26:18;;;;;;;;;;;;;;;3.47;100.00;96250.22;4979561;28;19925;-57
2020/12/14 11:28:46;;;;;;;;;;;;;;;3.57;100.00;96235.59;5006894;28;19925;-57
2020/12/14 11:31:13;;;;;;;;;;;;;;;3.77;100.00;96237.63;4965466;28;20312;-59
2020/12/14 11:33:54;;;;;;;;;;;;;;;4.11;100.00;96237.84;4999544;28;19949;-59
2020/12/14 11:36:28;;;;;;;;;;;;;;;3.96;100.00;96231.13;4957200;28;19984;-55
2020/12/14 11:38:56;;;;;;;;;;;;;;;3.92;100.00;96227.91;5008204;28;19932;-57
2020/12/14 11:41:22;;;;;;;;;;;;;;;3.86;100.00;96224.91;4965007;28;19934;-57
2020/12/14 11:43:50;;;;;;;;;;;;;;;3.79;100.00;96217.50;5015331;28;19926;-58
2020/12/14 11:46:17;;;;;;;;;;;;;;;3.90;100.00;96221.97;4970231;28;20444;-59
2020/12/14 11:48:44;;;;;;;;;;;;;;;4.19;100.00;96216.41;5006512;28;19929;-55
2020/12/14 11:51:11;;;;;;;;;;;;;;;4.19;100.00;96214.63;4977837;28;19936;-55
2020/12/14 11:53:38;;;;;;;;;;;;;;;4.35;100.00;96208.31;5011115;28;20350;-54
2020/12/14 11:56:06;;;;;;;;;;;;;;;4.12;100.00;96209.97;4964132;28;20038;-57
2020/12/14 11:58:33;;;;;;;;;;;;;;;4.42;100.00;96199.91;5001105;28;20013;-55
2020/12/14 12:01:00;;;;;;;;;;;;;;;4.44;100.00;96199.78;4971764;28;20024;-57
2020/12/14 12:03:28;;;;;;;;;;;;;;;4.22;100.00;96206.59;5008301;28;20359;-59
2020/12/14 12:05:56;;;;;;;;;;;;;;;4.00;100.00;96204.72;4971537;28;20066;-56
2020/12/14 12:08:23;;;;;;;;;;;;;;;4.04;100.00;96198.31;5032663;28;19929;-59
2020/12/14 12:10:50;;;;;;;;;;;;;;;4.03;100.00;96198.44;5000457;28;19925;-54
2020/12/14 12:13:17;;;;;;;;;;;;;;;4.12;100.00;96187.31;4996619;28;19933;-57
2020/12/14 12:15:44;;;;;;;;;;;;;;;4.26;100.00;96187.13;5034586;28;19987;-59
2020/12/14 12:18:12;;;;;;;;;;;;;;;4.13;100.00;96186.41;4986986;28;19925;-59
2020/12/14 12:20:39;;;;;;;;;;;;;;;4.41;100.00;96190.41;5028231;28;19936;-58
2020/12/14 12:23:05;;;;;;;;;;;;;;;4.71;100.00;96196.91;4981467;28;20007;-55
2020/12/14 12:25:33;;;;;;;;;;;;;;;4.71;100.00;96197.75;5031736;28;19929;-59
2020/12/14 12:27:59;;;;;;;;;;;;;;;4.09;100.00;96200.59;4993184;28;20378;-58
2020/12/14 12:30:33;;;;;;;;;;;;;;;4.30;100.00;96200.81;5022571;28;19933;-59
2020/12/14 12:33:01;;;;;;;;;;;;;;;4.29;100.00;96196.53;4991705;28;19932;-58
2020/12/14 12:35:29;;;;;;;;;;;;;;;4.47;100.00;96203.03;5020471;28;19940;-59
2020/12/14 12:37:56;;;;;;;;;;;;;;;4.46;100.00;96198.72;4981341;28;19932;-58
2020/12/14 12:40:24;;;;;;;;;;;;;;;4.48;100.00;96206.47;5029532;28;20205;-58
2020/12/14 12:42:51;;;;;;;;;;;;;;;4.30;100.00;96200.81;4988326;28;19932;-59
2020/12/14 12:45:18;;;;;;;;;;;;;;;4.17;100.00;96203.50;5025646;28;19925;-56
2020/12/14 12:47:45;;;;;;;;;;;;;;;4.00;100.00;96202.09;4999049;28;20397;-57
2020/12/14 12:50:13;;;;;;;;;;;;;;;3.93;100.00;96206.09;5010066;28;19929;-58